sensor_id;sensor_type;location;lat;lon;timestamp;P1;durP1;ratioP1;P2;durP2;ratioP2
75400;SDS011;63974;47.538;18.972;2023-04-24T00:02:35;15.40;;;9.32;;
75400;SDS011;63974;47.538;18.972;2023-04-24T00:05:42;13.50;;;8.88;;
75400;SDS011;63974;47.538;18.972;2023-04-24T00:08:45;14.15;;;9.00;;
75400;SDS011;63974;47.538;18.972;2023-04-24T00:11:48;12.70;;;8.82;;
75400;SDS011;63974;47.538;18.972;2023-04-24T00:14:51;13.50;;;8.80;;
75400;SDS011;63974;47.538;18.972;2023-04-24T00:17:53;14.25;;;9.27;;
75400;SDS011;63974;47.538;18.972;2023-04-24T00:20:57;14.38;;;9.35;;
75400;SDS011;63974;47.538;18.972;2023-04-24T00:23:59;12.90;;;8.82;;
75400;SDS011;63974;47.538;18.972;2023-04-24T00:27:02;13.80;;;9.30;;
75400;SDS011;63974;47.538;18.972;2023-04-24T00:30:06;13.53;;;8.93;;
75400;SDS011;63974;47.538;18.972;2023-04-24T00:33:15;13.25;;;8.82;;
75400;SDS011;63974;47.538;18.972;2023-04-24T00:36:18;13.40;;;9.02;;
75400;SDS011;63974;47.538;18.972;2023-04-24T00:39:23;14.65;;;9.68;;
75400;SDS011;63974;47.538;18.972;2023-04-24T00:42:25;13.73;;;9.00;;
75400;SDS011;63974;47.538;18.972;2023-04-24T00:45:29;15.43;;;9.63;;
75400;SDS011;63974;47.538;18.972;2023-04-24T00:48:34;14.93;;;9.35;;
75400;SDS011;63974;47.538;18.972;2023-04-24T00:51:37;15.95;;;9.05;;
75400;SDS011;63974;47.538;18.972;2023-04-24T00:54:40;13.52;;;8.27;;
75400;SDS011;63974;47.538;18.972;2023-04-24T00:57:43;14.13;;;8.57;;
75400;SDS011;63974;47.538;18.972;2023-04-24T01:00:48;13.83;;;8.53;;
75400;SDS011;63974;47.538;18.972;2023-04-24T01:03:55;16.73;;;9.75;;
75400;SDS011;63974;47.538;18.972;2023-04-24T01:07:00;16.55;;;9.45;;
75400;SDS011;63974;47.538;18.972;2023-04-24T01:10:03;13.23;;;8.63;;
75400;SDS011;63974;47.538;18.972;2023-04-24T01:13:09;13.40;;;8.35;;
75400;SDS011;63974;47.538;18.972;2023-04-24T01:16:13;13.60;;;8.60;;
75400;SDS011;63974;47.538;18.972;2023-04-24T01:19:17;11.43;;;8.38;;
75400;SDS011;63974;47.538;18.972;2023-04-24T01:22:21;12.95;;;8.80;;
75400;SDS011;63974;47.538;18.972;2023-04-24T01:25:24;13.27;;;9.05;;
75400;SDS011;63974;47.538;18.972;2023-04-24T01:28:28;14.05;;;9.40;;
75400;SDS011;63974;47.538;18.972;2023-04-24T01:31:32;16.23;;;9.80;;
75400;SDS011;63974;47.538;18.972;2023-04-24T01:34:35;15.85;;;10.05;;
75400;SDS011;63974;47.538;18.972;2023-04-24T01:37:39;16.65;;;9.38;;
75400;SDS011;63974;47.538;18.972;2023-04-24T01:40:42;19.20;;;10.30;;
75400;SDS011;63974;47.538;18.972;2023-04-24T01:43:45;17.17;;;10.55;;
75400;SDS011;63974;47.538;18.972;2023-04-24T01:46:48;15.97;;;10.30;;
75400;SDS011;63974;47.538;18.972;2023-04-24T01:49:51;14.88;;;9.70;;
75400;SDS011;63974;47.538;18.972;2023-04-24T01:52:55;14.57;;;9.60;;
75400;SDS011;63974;47.538;18.972;2023-04-24T01:55:57;16.30;;;10.32;;
75400;SDS011;63974;47.538;18.972;2023-04-24T01:59:02;15.35;;;9.73;;
75400;SDS011;63974;47.538;18.972;2023-04-24T02:02:06;15.97;;;9.20;;
75400;SDS011;63974;47.538;18.972;2023-04-24T02:05:10;17.92;;;10.50;;
75400;SDS011;63974;47.538;18.972;2023-04-24T02:08:13;16.48;;;10.27;;
75400;SDS011;63974;47.538;18.972;2023-04-24T02:11:16;14.77;;;9.75;;
75400;SDS011;63974;47.538;18.972;2023-04-24T02:14:18;17.25;;;9.77;;
75400;SDS011;63974;47.538;18.972;2023-04-24T02:17:21;16.70;;;10.53;;
75400;SDS011;63974;47.538;18.972;2023-04-24T02:20:25;14.73;;;9.93;;
75400;SDS011;63974;47.538;18.972;2023-04-24T02:23:28;21.25;;;11.82;;
75400;SDS011;63974;47.538;18.972;2023-04-24T02:26:30;16.45;;;9.88;;
75400;SDS011;63974;47.538;18.972;2023-04-24T02:29:34;16.52;;;9.82;;
75400;SDS011;63974;47.538;18.972;2023-04-24T02:32:37;16.93;;;10.30;;
75400;SDS011;63974;47.538;18.972;2023-04-24T02:35:45;15.25;;;9.85;;
75400;SDS011;63974;47.538;18.972;2023-04-24T02:38:48;16.77;;;10.35;;
75400;SDS011;63974;47.538;18.972;2023-04-24T02:41:51;15.25;;;9.98;;
75400;SDS011;63974;47.538;18.972;2023-04-24T02:44:53;16.50;;;10.73;;
75400;SDS011;63974;47.538;18.972;2023-04-24T02:47:56;15.67;;;9.63;;
75400;SDS011;63974;47.538;18.972;2023-04-24T02:50:59;16.50;;;9.80;;
75400;SDS011;63974;47.538;18.972;2023-04-24T02:54:02;17.95;;;10.20;;
75400;SDS011;63974;47.538;18.972;2023-04-24T02:57:05;14.80;;;9.20;;
75400;SDS011;63974;47.538;18.972;2023-04-24T03:00:08;16.13;;;10.00;;
75400;SDS011;63974;47.538;18.972;2023-04-24T03:03:12;15.07;;;9.83;;
75400;SDS011;63974;47.538;18.972;2023-04-24T03:06:15;13.95;;;9.45;;
75400;SDS011;63974;47.538;18.972;2023-04-24T03:09:18;15.55;;;9.48;;
75400;SDS011;63974;47.538;18.972;2023-04-24T03:12:22;15.48;;;9.45;;
75400;SDS011;63974;47.538;18.972;2023-04-24T03:15:26;14.02;;;10.05;;
75400;SDS011;63974;47.538;18.972;2023-04-24T03:18:29;14.73;;;9.27;;
75400;SDS011;63974;47.538;18.972;2023-04-24T03:21:32;16.70;;;9.93;;
75400;SDS011;63974;47.538;18.972;2023-04-24T03:24:36;14.57;;;9.77;;
75400;SDS011;63974;47.538;18.972;2023-04-24T03:27:39;15.57;;;9.65;;
75400;SDS011;63974;47.538;18.972;2023-04-24T03:30:51;16.48;;;9.85;;
75400;SDS011;63974;47.538;18.972;2023-04-24T03:33:57;15.73;;;10.00;;
75400;SDS011;63974;47.538;18.972;2023-04-24T03:37:01;19.17;;;9.75;;
75400;SDS011;63974;47.538;18.972;2023-04-24T03:40:05;16.70;;;10.15;;
75400;SDS011;63974;47.538;18.972;2023-04-24T03:43:11;16.05;;;10.07;;
75400;SDS011;63974;47.538;18.972;2023-04-24T03:46:14;16.15;;;9.52;;
75400;SDS011;63974;47.538;18.972;2023-04-24T03:49:24;19.30;;;10.37;;
75400;SDS011;63974;47.538;18.972;2023-04-24T03:52:28;13.75;;;9.43;;
75400;SDS011;63974;47.538;18.972;2023-04-24T03:55:31;15.40;;;9.68;;
75400;SDS011;63974;47.538;18.972;2023-04-24T03:58:34;14.20;;;9.55;;
75400;SDS011;63974;47.538;18.972;2023-04-24T04:01:37;15.25;;;9.43;;
75400;SDS011;63974;47.538;18.972;2023-04-24T04:04:48;14.40;;;8.97;;
75400;SDS011;63974;47.538;18.972;2023-04-24T04:07:51;17.33;;;10.10;;
75400;SDS011;63974;47.538;18.972;2023-04-24T04:10:54;15.40;;;9.70;;
75400;SDS011;63974;47.538;18.972;2023-04-24T04:13:58;19.52;;;9.50;;
75400;SDS011;63974;47.538;18.972;2023-04-24T04:17:01;15.00;;;10.35;;
75400;SDS011;63974;47.538;18.972;2023-04-24T04:20:04;17.57;;;9.93;;
75400;SDS011;63974;47.538;18.972;2023-04-24T04:23:14;15.32;;;10.23;;
75400;SDS011;63974;47.538;18.972;2023-04-24T04:26:46;15.52;;;9.48;;
75400;SDS011;63974;47.538;18.972;2023-04-24T04:30:00;18.13;;;10.50;;
75400;SDS011;63974;47.538;18.972;2023-04-24T04:33:14;18.17;;;9.65;;
75400;SDS011;63974;47.538;18.972;2023-04-24T04:36:17;16.57;;;9.40;;
75400;SDS011;63974;47.538;18.972;2023-04-24T04:39:26;16.75;;;9.68;;
75400;SDS011;63974;47.538;18.972;2023-04-24T04:42:34;16.48;;;10.38;;
75400;SDS011;63974;47.538;18.972;2023-04-24T04:45:37;17.85;;;10.10;;
75400;SDS011;63974;47.538;18.972;2023-04-24T04:49:05;16.23;;;10.15;;
75400;SDS011;63974;47.538;18.972;2023-04-24T04:52:09;19.03;;;10.20;;
75400;SDS011;63974;47.538;18.972;2023-04-24T04:55:14;17.42;;;10.55;;
75400;SDS011;63974;47.538;18.972;2023-04-24T04:58:43;17.70;;;10.63;;
75400;SDS011;63974;47.538;18.972;2023-04-24T05:01:49;18.35;;;10.73;;
75400;SDS011;63974;47.538;18.972;2023-04-24T05:04:53;20.48;;;12.00;;
75400;SDS011;63974;47.538;18.972;2023-04-24T05:07:56;25.90;;;12.13;;
75400;SDS011;63974;47.538;18.972;2023-04-24T05:10:58;16.42;;;10.82;;
75400;SDS011;63974;47.538;18.972;2023-04-24T05:14:04;20.30;;;12.35;;
75400;SDS011;63974;47.538;18.972;2023-04-24T05:17:10;18.80;;;11.50;;
75400;SDS011;63974;47.538;18.972;2023-04-24T05:20:15;18.30;;;11.43;;
75400;SDS011;63974;47.538;18.972;2023-04-24T05:23:18;20.27;;;10.77;;
75400;SDS011;63974;47.538;18.972;2023-04-24T05:26:25;17.40;;;10.93;;
75400;SDS011;63974;47.538;18.972;2023-04-24T05:29:28;19.35;;;11.63;;
75400;SDS011;63974;47.538;18.972;2023-04-24T05:32:33;17.65;;;11.30;;
75400;SDS011;63974;47.538;18.972;2023-04-24T05:35:37;19.95;;;11.07;;
75400;SDS011;63974;47.538;18.972;2023-04-24T05:38:41;20.67;;;11.83;;
75400;SDS011;63974;47.538;18.972;2023-04-24T05:41:45;34.67;;;15.60;;
75400;SDS011;63974;47.538;18.972;2023-04-24T05:44:48;30.38;;;16.05;;
75400;SDS011;63974;47.538;18.972;2023-04-24T05:47:55;31.08;;;20.65;;
75400;SDS011;63974;47.538;18.972;2023-04-24T05:50:58;25.85;;;15.98;;
75400;SDS011;63974;47.538;18.972;2023-04-24T05:54:01;24.47;;;16.60;;
75400;SDS011;63974;47.538;18.972;2023-04-24T05:57:05;27.52;;;18.52;;
75400;SDS011;63974;47.538;18.972;2023-04-24T06:00:31;24.65;;;16.20;;
75400;SDS011;63974;47.538;18.972;2023-04-24T06:03:40;24.92;;;15.52;;
75400;SDS011;63974;47.538;18.972;2023-04-24T06:06:43;22.70;;;14.35;;
75400;SDS011;63974;47.538;18.972;2023-04-24T06:09:47;23.13;;;13.40;;
75400;SDS011;63974;47.538;18.972;2023-04-24T06:12:50;22.48;;;14.05;;
75400;SDS011;63974;47.538;18.972;2023-04-24T06:15:54;24.90;;;14.23;;
75400;SDS011;63974;47.538;18.972;2023-04-24T06:19:05;23.27;;;13.70;;
75400;SDS011;63974;47.538;18.972;2023-04-24T06:22:08;25.15;;;15.13;;
75400;SDS011;63974;47.538;18.972;2023-04-24T06:25:12;30.23;;;17.33;;
75400;SDS011;63974;47.538;18.972;2023-04-24T06:28:15;29.90;;;16.70;;
75400;SDS011;63974;47.538;18.972;2023-04-24T06:31:20;23.55;;;14.75;;
75400;SDS011;63974;47.538;18.972;2023-04-24T06:34:24;24.05;;;14.07;;
75400;SDS011;63974;47.538;18.972;2023-04-24T06:37:27;23.98;;;13.50;;
75400;SDS011;63974;47.538;18.972;2023-04-24T06:40:30;21.30;;;13.13;;
75400;SDS011;63974;47.538;18.972;2023-04-24T06:43:33;23.83;;;13.23;;
75400;SDS011;63974;47.538;18.972;2023-04-24T06:46:36;21.65;;;12.23;;
75400;SDS011;63974;47.538;18.972;2023-04-24T06:49:42;18.85;;;11.38;;
75400;SDS011;63974;47.538;18.972;2023-04-24T06:52:45;21.90;;;13.32;;
75400;SDS011;63974;47.538;18.972;2023-04-24T06:55:48;20.20;;;13.30;;
75400;SDS011;63974;47.538;18.972;2023-04-24T06:58:51;20.00;;;13.02;;
75400;SDS011;63974;47.538;18.972;2023-04-24T07:01:54;23.20;;;14.73;;
75400;SDS011;63974;47.538;18.972;2023-04-24T07:04:58;23.05;;;13.93;;
75400;SDS011;63974;47.538;18.972;2023-04-24T07:08:01;20.83;;;13.43;;
75400;SDS011;63974;47.538;18.972;2023-04-24T07:11:04;21.00;;;13.87;;
75400;SDS011;63974;47.538;18.972;2023-04-24T07:14:08;24.30;;;13.65;;
75400;SDS011;63974;47.538;18.972;2023-04-24T07:17:13;24.77;;;12.57;;
75400;SDS011;63974;47.538;18.972;2023-04-24T07:20:17;19.15;;;10.52;;
75400;SDS011;63974;47.538;18.972;2023-04-24T07:23:20;17.00;;;10.82;;
75400;SDS011;63974;47.538;18.972;2023-04-24T07:26:24;18.30;;;10.33;;
75400;SDS011;63974;47.538;18.972;2023-04-24T07:29:28;22.98;;;10.95;;
75400;SDS011;63974;47.538;18.972;2023-04-24T07:32:31;16.52;;;10.38;;
75400;SDS011;63974;47.538;18.972;2023-04-24T07:35:34;14.45;;;9.93;;
75400;SDS011;63974;47.538;18.972;2023-04-24T07:38:37;17.55;;;9.95;;
75400;SDS011;63974;47.538;18.972;2023-04-24T07:41:40;17.57;;;9.70;;
75400;SDS011;63974;47.538;18.972;2023-04-24T07:44:43;17.65;;;10.18;;
75400;SDS011;63974;47.538;18.972;2023-04-24T07:47:46;16.05;;;10.82;;
75400;SDS011;63974;47.538;18.972;2023-04-24T07:50:49;15.38;;;10.77;;
75400;SDS011;63974;47.538;18.972;2023-04-24T07:53:52;14.73;;;9.43;;
75400;SDS011;63974;47.538;18.972;2023-04-24T07:56:55;15.67;;;9.40;;
75400;SDS011;63974;47.538;18.972;2023-04-24T07:59:57;13.98;;;8.32;;
75400;SDS011;63974;47.538;18.972;2023-04-24T08:03:01;13.40;;;7.20;;
75400;SDS011;63974;47.538;18.972;2023-04-24T08:06:04;10.88;;;5.45;;
75400;SDS011;63974;47.538;18.972;2023-04-24T08:09:07;6.13;;;3.22;;
75400;SDS011;63974;47.538;18.972;2023-04-24T08:12:11;2.83;;;1.97;;
75400;SDS011;63974;47.538;18.972;2023-04-24T08:15:14;4.22;;;1.52;;
75400;SDS011;63974;47.538;18.972;2023-04-24T08:18:17;1.65;;;1.00;;
75400;SDS011;63974;47.538;18.972;2023-04-24T08:21:21;2.88;;;1.27;;
75400;SDS011;63974;47.538;18.972;2023-04-24T08:24:24;2.35;;;1.20;;
75400;SDS011;63974;47.538;18.972;2023-04-24T08:27:27;2.40;;;1.57;;
75400;SDS011;63974;47.538;18.972;2023-04-24T08:30:30;2.88;;;1.30;;
75400;SDS011;63974;47.538;18.972;2023-04-24T08:33:32;3.22;;;1.73;;
75400;SDS011;63974;47.538;18.972;2023-04-24T08:36:38;1.98;;;1.33;;
75400;SDS011;63974;47.538;18.972;2023-04-24T08:39:49;3.88;;;1.60;;
75400;SDS011;63974;47.538;18.972;2023-04-24T08:42:52;2.93;;;2.00;;
75400;SDS011;63974;47.538;18.972;2023-04-24T08:45:58;1.90;;;1.15;;
75400;SDS011;63974;47.538;18.972;2023-04-24T08:49:02;3.10;;;1.60;;
75400;SDS011;63974;47.538;18.972;2023-04-24T08:52:07;2.30;;;1.10;;
75400;SDS011;63974;47.538;18.972;2023-04-24T08:55:10;1.98;;;1.60;;
75400;SDS011;63974;47.538;18.972;2023-04-24T08:58:13;3.63;;;1.47;;
75400;SDS011;63974;47.538;18.972;2023-04-24T09:01:18;2.97;;;1.70;;
75400;SDS011;63974;47.538;18.972;2023-04-24T09:10:26;3.97;;;1.98;;
75400;SDS011;63974;47.538;18.972;2023-04-24T09:13:32;3.90;;;2.28;;
75400;SDS011;63974;47.538;18.972;2023-04-24T09:16:36;4.73;;;1.97;;
75400;SDS011;63974;47.538;18.972;2023-04-24T09:19:39;3.25;;;2.30;;
75400;SDS011;63974;47.538;18.972;2023-04-24T09:22:43;4.95;;;2.03;;
75400;SDS011;63974;47.538;18.972;2023-04-24T09:25:48;4.63;;;2.38;;
75400;SDS011;63974;47.538;18.972;2023-04-24T09:28:57;4.47;;;2.55;;
75400;SDS011;63974;47.538;18.972;2023-04-24T09:32:17;5.33;;;2.57;;
75400;SDS011;63974;47.538;18.972;2023-04-24T09:35:20;3.78;;;2.35;;
75400;SDS011;63974;47.538;18.972;2023-04-24T09:38:33;3.10;;;1.95;;
75400;SDS011;63974;47.538;18.972;2023-04-24T09:41:50;4.00;;;2.47;;
75400;SDS011;63974;47.538;18.972;2023-04-24T09:44:59;3.30;;;2.15;;
75400;SDS011;63974;47.538;18.972;2023-04-24T09:48:15;3.53;;;2.20;;
75400;SDS011;63974;47.538;18.972;2023-04-24T09:51:19;4.95;;;2.72;;
75400;SDS011;63974;47.538;18.972;2023-04-24T09:54:36;3.08;;;2.33;;
75400;SDS011;63974;47.538;18.972;2023-04-24T09:57:50;4.25;;;2.30;;
75400;SDS011;63974;47.538;18.972;2023-04-24T10:00:57;3.30;;;2.05;;
75400;SDS011;63974;47.538;18.972;2023-04-24T10:04:00;3.77;;;2.60;;
75400;SDS011;63974;47.538;18.972;2023-04-24T10:07:03;3.33;;;2.70;;
75400;SDS011;63974;47.538;18.972;2023-04-24T10:10:09;4.30;;;3.75;;
75400;SDS011;63974;47.538;18.972;2023-04-24T10:13:13;5.18;;;2.88;;
75400;SDS011;63974;47.538;18.972;2023-04-24T10:16:20;3.63;;;2.80;;
75400;SDS011;63974;47.538;18.972;2023-04-24T10:19:25;5.07;;;3.43;;
75400;SDS011;63974;47.538;18.972;2023-04-24T10:22:30;6.80;;;3.58;;
75400;SDS011;63974;47.538;18.972;2023-04-24T10:25:35;5.05;;;3.42;;
75400;SDS011;63974;47.538;18.972;2023-04-24T10:28:39;4.28;;;2.50;;
75400;SDS011;63974;47.538;18.972;2023-04-24T10:31:43;4.40;;;2.55;;
75400;SDS011;63974;47.538;18.972;2023-04-24T10:34:50;5.07;;;3.10;;
75400;SDS011;63974;47.538;18.972;2023-04-24T10:37:58;6.20;;;3.47;;
75400;SDS011;63974;47.538;18.972;2023-04-24T10:41:09;6.07;;;3.28;;
75400;SDS011;63974;47.538;18.972;2023-04-24T10:44:18;3.88;;;2.83;;
75400;SDS011;63974;47.538;18.972;2023-04-24T10:47:24;5.30;;;3.00;;
75400;SDS011;63974;47.538;18.972;2023-04-24T10:50:41;3.97;;;2.47;;
75400;SDS011;63974;47.538;18.972;2023-04-24T10:53:45;3.70;;;2.38;;
75400;SDS011;63974;47.538;18.972;2023-04-24T10:56:47;2.60;;;1.80;;
75400;SDS011;63974;47.538;18.972;2023-04-24T11:00:09;3.80;;;2.22;;
75400;SDS011;63974;47.538;18.972;2023-04-24T11:03:28;3.80;;;1.90;;
75400;SDS011;63974;47.538;18.972;2023-04-24T11:06:36;3.17;;;2.17;;
75400;SDS011;63974;47.538;18.972;2023-04-24T11:09:39;4.45;;;2.28;;
75400;SDS011;63974;47.538;18.972;2023-04-24T11:12:45;3.63;;;1.85;;
75400;SDS011;63974;47.538;18.972;2023-04-24T11:22:22;6.23;;;2.30;;
75400;SDS011;63974;47.538;18.972;2023-04-24T11:25:28;4.03;;;2.08;;
75400;SDS011;63974;47.538;18.972;2023-04-24T11:28:34;6.18;;;2.63;;
75400;SDS011;63974;47.538;18.972;2023-04-24T11:31:37;3.35;;;2.40;;
75400;SDS011;63974;47.538;18.972;2023-04-24T11:34:45;3.95;;;2.53;;
75400;SDS011;63974;47.538;18.972;2023-04-24T11:37:49;4.67;;;2.57;;
75400;SDS011;63974;47.538;18.972;2023-04-24T11:41:14;4.00;;;3.22;;
75400;SDS011;63974;47.538;18.972;2023-04-24T11:44:17;4.88;;;3.10;;
75400;SDS011;63974;47.538;18.972;2023-04-24T11:47:29;4.13;;;2.17;;
75400;SDS011;63974;47.538;18.972;2023-04-24T11:50:33;4.40;;;2.88;;
75400;SDS011;63974;47.538;18.972;2023-04-24T11:53:36;6.07;;;3.60;;
75400;SDS011;63974;47.538;18.972;2023-04-24T11:56:39;5.85;;;4.07;;
75400;SDS011;63974;47.538;18.972;2023-04-24T11:59:47;5.40;;;3.80;;
75400;SDS011;63974;47.538;18.972;2023-04-24T12:02:50;7.97;;;5.07;;
75400;SDS011;63974;47.538;18.972;2023-04-24T12:06:04;5.97;;;4.00;;
75400;SDS011;63974;47.538;18.972;2023-04-24T12:09:09;5.50;;;3.70;;
75400;SDS011;63974;47.538;18.972;2023-04-24T12:12:19;5.25;;;3.65;;
75400;SDS011;63974;47.538;18.972;2023-04-24T12:15:23;5.90;;;3.17;;
75400;SDS011;63974;47.538;18.972;2023-04-24T12:18:26;4.50;;;3.70;;
75400;SDS011;63974;47.538;18.972;2023-04-24T12:21:29;7.57;;;3.80;;
75400;SDS011;63974;47.538;18.972;2023-04-24T12:24:34;4.77;;;3.57;;
75400;SDS011;63974;47.538;18.972;2023-04-24T12:27:36;4.93;;;3.78;;
75400;SDS011;63974;47.538;18.972;2023-04-24T12:30:57;5.80;;;3.15;;
75400;SDS011;63974;47.538;18.972;2023-04-24T12:34:03;7.05;;;3.60;;
75400;SDS011;63974;47.538;18.972;2023-04-24T12:37:11;5.80;;;3.28;;
75400;SDS011;63974;47.538;18.972;2023-04-24T12:40:14;3.23;;;2.60;;
75400;SDS011;63974;47.538;18.972;2023-04-24T12:43:19;5.47;;;3.13;;
75400;SDS011;63974;47.538;18.972;2023-04-24T12:46:22;6.15;;;2.95;;
75400;SDS011;63974;47.538;18.972;2023-04-24T12:49:25;4.97;;;3.20;;
75400;SDS011;63974;47.538;18.972;2023-04-24T12:52:28;2.83;;;2.33;;
75400;SDS011;63974;47.538;18.972;2023-04-24T12:55:32;3.77;;;2.27;;
75400;SDS011;63974;47.538;18.972;2023-04-24T12:58:35;2.95;;;2.25;;
75400;SDS011;63974;47.538;18.972;2023-04-24T13:01:38;4.05;;;2.30;;
75400;SDS011;63974;47.538;18.972;2023-04-24T13:04:41;3.40;;;1.88;;
75400;SDS011;63974;47.538;18.972;2023-04-24T13:07:43;3.47;;;1.98;;
75400;SDS011;63974;47.538;18.972;2023-04-24T13:10:46;2.80;;;2.03;;
75400;SDS011;63974;47.538;18.972;2023-04-24T13:13:49;3.53;;;2.30;;
75400;SDS011;63974;47.538;18.972;2023-04-24T13:16:55;4.50;;;3.00;;
75400;SDS011;63974;47.538;18.972;2023-04-24T13:19:58;3.88;;;3.03;;
75400;SDS011;63974;47.538;18.972;2023-04-24T13:23:01;4.28;;;2.83;;
75400;SDS011;63974;47.538;18.972;2023-04-24T13:26:04;4.07;;;3.20;;
75400;SDS011;63974;47.538;18.972;2023-04-24T13:29:07;4.63;;;2.60;;
75400;SDS011;63974;47.538;18.972;2023-04-24T13:32:10;3.97;;;2.95;;
75400;SDS011;63974;47.538;18.972;2023-04-24T13:35:13;5.35;;;3.30;;
75400;SDS011;63974;47.538;18.972;2023-04-24T13:38:16;4.57;;;3.20;;
75400;SDS011;63974;47.538;18.972;2023-04-24T13:41:19;4.67;;;3.17;;
75400;SDS011;63974;47.538;18.972;2023-04-24T13:44:22;4.50;;;3.50;;
75400;SDS011;63974;47.538;18.972;2023-04-24T13:47:25;5.03;;;3.15;;
75400;SDS011;63974;47.538;18.972;2023-04-24T13:50:28;6.22;;;3.60;;
75400;SDS011;63974;47.538;18.972;2023-04-24T13:53:31;5.07;;;3.40;;
75400;SDS011;63974;47.538;18.972;2023-04-24T13:56:35;4.80;;;3.20;;
75400;SDS011;63974;47.538;18.972;2023-04-24T13:59:37;5.07;;;3.10;;
75400;SDS011;63974;47.538;18.972;2023-04-24T14:02:40;5.38;;;3.22;;
75400;SDS011;63974;47.538;18.972;2023-04-24T14:05:43;4.78;;;3.03;;
75400;SDS011;63974;47.538;18.972;2023-04-24T14:08:46;4.60;;;2.90;;
75400;SDS011;63974;47.538;18.972;2023-04-24T14:11:51;4.93;;;2.80;;
75400;SDS011;63974;47.538;18.972;2023-04-24T14:14:54;5.32;;;2.83;;
75400;SDS011;63974;47.538;18.972;2023-04-24T14:17:57;4.05;;;2.75;;
75400;SDS011;63974;47.538;18.972;2023-04-24T14:21:00;4.22;;;3.22;;
75400;SDS011;63974;47.538;18.972;2023-04-24T14:24:03;4.82;;;3.58;;
75400;SDS011;63974;47.538;18.972;2023-04-24T14:27:06;4.50;;;3.00;;
75400;SDS011;63974;47.538;18.972;2023-04-24T14:30:10;4.88;;;3.33;;
75400;SDS011;63974;47.538;18.972;2023-04-24T14:33:15;5.45;;;3.85;;
75400;SDS011;63974;47.538;18.972;2023-04-24T14:36:17;6.72;;;3.75;;
75400;SDS011;63974;47.538;18.972;2023-04-24T14:39:20;4.60;;;3.47;;
75400;SDS011;63974;47.538;18.972;2023-04-24T14:42:23;6.00;;;3.60;;
75400;SDS011;63974;47.538;18.972;2023-04-24T14:45:27;6.20;;;3.72;;
75400;SDS011;63974;47.538;18.972;2023-04-24T14:48:30;5.68;;;4.13;;
75400;SDS011;63974;47.538;18.972;2023-04-24T14:51:33;6.13;;;3.38;;
75400;SDS011;63974;47.538;18.972;2023-04-24T14:54:36;11.25;;;5.95;;
75400;SDS011;63974;47.538;18.972;2023-04-24T14:57:39;8.97;;;5.70;;
75400;SDS011;63974;47.538;18.972;2023-04-24T15:00:41;6.88;;;4.45;;
75400;SDS011;63974;47.538;18.972;2023-04-24T15:03:44;9.68;;;4.85;;
75400;SDS011;63974;47.538;18.972;2023-04-24T15:06:48;4.63;;;3.35;;
75400;SDS011;63974;47.538;18.972;2023-04-24T15:09:52;6.10;;;4.35;;
75400;SDS011;63974;47.538;18.972;2023-04-24T15:12:55;4.60;;;3.10;;
75400;SDS011;63974;47.538;18.972;2023-04-24T15:15:58;4.50;;;2.85;;
75400;SDS011;63974;47.538;18.972;2023-04-24T15:19:01;11.13;;;6.03;;
75400;SDS011;63974;47.538;18.972;2023-04-24T15:22:04;9.90;;;5.40;;
75400;SDS011;63974;47.538;18.972;2023-04-24T15:25:07;7.60;;;4.43;;
75400;SDS011;63974;47.538;18.972;2023-04-24T15:28:10;5.47;;;2.70;;
75400;SDS011;63974;47.538;18.972;2023-04-24T15:31:13;3.60;;;2.80;;
75400;SDS011;63974;47.538;18.972;2023-04-24T15:34:15;7.57;;;3.85;;
75400;SDS011;63974;47.538;18.972;2023-04-24T15:37:18;9.18;;;5.40;;
75400;SDS011;63974;47.538;18.972;2023-04-24T15:40:21;10.57;;;5.35;;
75400;SDS011;63974;47.538;18.972;2023-04-24T15:43:24;12.07;;;6.00;;
75400;SDS011;63974;47.538;18.972;2023-04-24T15:46:27;10.02;;;6.30;;
75400;SDS011;63974;47.538;18.972;2023-04-24T15:49:30;10.45;;;5.50;;
75400;SDS011;63974;47.538;18.972;2023-04-24T15:52:34;6.55;;;4.50;;
75400;SDS011;63974;47.538;18.972;2023-04-24T15:55:37;6.80;;;4.07;;
75400;SDS011;63974;47.538;18.972;2023-04-24T15:58:40;6.60;;;4.30;;
75400;SDS011;63974;47.538;18.972;2023-04-24T16:01:43;6.90;;;4.38;;
75400;SDS011;63974;47.538;18.972;2023-04-24T16:04:47;5.88;;;3.88;;
75400;SDS011;63974;47.538;18.972;2023-04-24T16:07:51;5.10;;;3.70;;
75400;SDS011;63974;47.538;18.972;2023-04-24T16:10:54;5.95;;;3.70;;
75400;SDS011;63974;47.538;18.972;2023-04-24T16:13:57;5.57;;;3.60;;
75400;SDS011;63974;47.538;18.972;2023-04-24T16:17:00;5.15;;;3.70;;
75400;SDS011;63974;47.538;18.972;2023-04-24T16:20:04;5.03;;;3.63;;
75400;SDS011;63974;47.538;18.972;2023-04-24T16:23:09;5.50;;;3.75;;
75400;SDS011;63974;47.538;18.972;2023-04-24T16:26:12;7.35;;;4.68;;
75400;SDS011;63974;47.538;18.972;2023-04-24T16:29:17;7.80;;;4.73;;
75400;SDS011;63974;47.538;18.972;2023-04-24T16:32:20;7.35;;;4.38;;
75400;SDS011;63974;47.538;18.972;2023-04-24T16:35:23;7.22;;;4.70;;
75400;SDS011;63974;47.538;18.972;2023-04-24T16:38:26;8.13;;;4.72;;
75400;SDS011;63974;47.538;18.972;2023-04-24T16:41:29;7.22;;;5.13;;
75400;SDS011;63974;47.538;18.972;2023-04-24T16:44:33;6.90;;;4.20;;
75400;SDS011;63974;47.538;18.972;2023-04-24T16:47:36;8.00;;;4.53;;
75400;SDS011;63974;47.538;18.972;2023-04-24T16:50:39;6.10;;;4.75;;
75400;SDS011;63974;47.538;18.972;2023-04-24T16:53:42;8.18;;;4.95;;
75400;SDS011;63974;47.538;18.972;2023-04-24T16:56:44;7.18;;;4.78;;
75400;SDS011;63974;47.538;18.972;2023-04-24T16:59:47;6.53;;;4.60;;
75400;SDS011;63974;47.538;18.972;2023-04-24T17:02:50;9.35;;;5.65;;
75400;SDS011;63974;47.538;18.972;2023-04-24T17:05:53;11.02;;;6.63;;
75400;SDS011;63974;47.538;18.972;2023-04-24T17:08:56;13.68;;;7.20;;
75400;SDS011;63974;47.538;18.972;2023-04-24T17:11:59;10.45;;;6.50;;
75400;SDS011;63974;47.538;18.972;2023-04-24T17:15:04;13.63;;;9.03;;
75400;SDS011;63974;47.538;18.972;2023-04-24T17:18:07;10.23;;;7.88;;
75400;SDS011;63974;47.538;18.972;2023-04-24T17:21:10;10.07;;;6.68;;
75400;SDS011;63974;47.538;18.972;2023-04-24T17:24:13;9.35;;;5.60;;
75400;SDS011;63974;47.538;18.972;2023-04-24T17:27:16;9.88;;;5.70;;
75400;SDS011;63974;47.538;18.972;2023-04-24T17:30:20;8.97;;;5.80;;
75400;SDS011;63974;47.538;18.972;2023-04-24T17:33:24;7.72;;;5.97;;
75400;SDS011;63974;47.538;18.972;2023-04-24T17:36:27;6.22;;;4.60;;
75400;SDS011;63974;47.538;18.972;2023-04-24T17:39:30;7.10;;;4.90;;
75400;SDS011;63974;47.538;18.972;2023-04-24T17:42:34;8.38;;;5.53;;
75400;SDS011;63974;47.538;18.972;2023-04-24T17:45:39;9.73;;;5.77;;
75400;SDS011;63974;47.538;18.972;2023-04-24T17:48:42;9.30;;;5.95;;
75400;SDS011;63974;47.538;18.972;2023-04-24T17:51:45;7.30;;;5.10;;
75400;SDS011;63974;47.538;18.972;2023-04-24T17:54:48;9.77;;;6.40;;
75400;SDS011;63974;47.538;18.972;2023-04-24T17:57:51;7.68;;;5.35;;
75400;SDS011;63974;47.538;18.972;2023-04-24T18:00:54;11.77;;;5.53;;
75400;SDS011;63974;47.538;18.972;2023-04-24T18:03:57;9.48;;;5.70;;
75400;SDS011;63974;47.538;18.972;2023-04-24T18:07:00;9.32;;;5.40;;
75400;SDS011;63974;47.538;18.972;2023-04-24T18:10:03;8.27;;;5.95;;
75400;SDS011;63974;47.538;18.972;2023-04-24T18:13:06;10.48;;;5.47;;
75400;SDS011;63974;47.538;18.972;2023-04-24T18:16:11;10.50;;;6.67;;
75400;SDS011;63974;47.538;18.972;2023-04-24T18:19:14;10.13;;;7.43;;